sensor_id;sensor_type;location;lat;lon;timestamp;pressure;altitude;pressure_sealevel;temperature;humidity
79331;BME280;68797;49.782;19.054;2023-09-12T00:00:08;97042.53;;;17.50;95.26
79331;BME280;68797;49.782;19.054;2023-09-12T00:03:02;97063.63;;;17.56;95.28
79331;BME280;68797;49.782;19.054;2023-09-12T00:05:29;97048.78;;;17.51;95.32
79331;BME280;68797;49.782;19.054;2023-09-12T00:07:56;97042.53;;;17.50;95.02
79331;BME280;68797;49.782;19.054;2023-09-12T00:10:22;97048.88;;;17.49;95.09
79331;BME280;68797;49.782;19.054;2023-09-12T00:12:53;97037.09;;;17.37;95.65
79331;BME280;68797;49.782;19.054;2023-09-12T00:15:20;97045.44;;;17.47;95.18
79331;BME280;68797;49.782;19.054;2023-09-12T00:17:47;97041.03;;;17.46;94.90
79331;BME280;68797;49.782;19.054;2023-09-12T00:20:16;97047.75;;;17.53;95.26
79331;BME280;68797;49.782;19.054;2023-09-12T00:22:43;97039.41;;;17.43;94.99
79331;BME280;68797;49.782;19.054;2023-09-12T00:25:10;97041.41;;;17.40;95.21
79331;BME280;68797;49.782;19.054;2023-09-12T00:27:37;97035.28;;;17.38;95.42
79331;BME280;68797;49.782;19.054;2023-09-12T00:30:05;97048.72;;;17.52;95.13
79331;BME280;68797;49.782;19.054;2023-09-12T00:32:33;97049.44;;;17.40;95.21
79331;BME280;68797;49.782;19.054;2023-09-12T00:35:00;97040.53;;;17.39;95.15
79331;BME280;68797;49.782;19.054;2023-09-12T00:37:27;97039.78;;;17.37;95.57
79331;BME280;68797;49.782;19.054;2023-09-12T00:39:54;97051.66;;;17.48;95.56
79331;BME280;68797;49.782;19.054;2023-09-12T00:42:21;97051.09;;;17.42;95.50
79331;BME280;68797;49.782;19.054;2023-09-12T00:44:48;97050.25;;;17.42;95.39
79331;BME280;68797;49.782;19.054;2023-09-12T00:47:15;97050.72;;;17.34;95.87
79331;BME280;68797;49.782;19.054;2023-09-12T00:49:42;97038.25;;;17.19;96.27
79331;BME280;68797;49.782;19.054;2023-09-12T00:52:10;97043.41;;;17.36;96.27
79331;BME280;68797;49.782;19.054;2023-09-12T00:54:39;97033.38;;;17.26;97.10
79331;BME280;68797;49.782;19.054;2023-09-12T00:57:07;97047.38;;;17.31;97.47
79331;BME280;68797;49.782;19.054;2023-09-12T00:59:34;97031.63;;;17.25;97.45
79331;BME280;68797;49.782;19.054;2023-09-12T01:02:01;97044.00;;;17.27;97.29
79331;BME280;68797;49.782;19.054;2023-09-12T01:04:29;97038.25;;;17.19;98.51
79331;BME280;68797;49.782;19.054;2023-09-12T01:06:56;97030.28;;;17.18;98.32
79331;BME280;68797;49.782;19.054;2023-09-12T01:09:22;97035.09;;;17.27;98.13
79331;BME280;68797;49.782;19.054;2023-09-12T01:11:49;97032.50;;;17.25;97.17
79331;BME280;68797;49.782;19.054;2023-09-12T01:14:17;97034.91;;;17.30;96.43
79331;BME280;68797;49.782;19.054;2023-09-12T01:16:46;97035.19;;;17.25;96.57
79331;BME280;68797;49.782;19.054;2023-09-12T01:19:14;97038.25;;;17.19;96.77
79331;BME280;68797;49.782;19.054;2023-09-12T01:22:15;97033.06;;;17.16;96.52
79331;BME280;68797;49.782;19.054;2023-09-12T01:27:54;97041.69;;;17.21;96.01
79331;BME280;68797;49.782;19.054;2023-09-12T01:30:22;97039.19;;;17.18;95.71
79331;BME280;68797;49.782;19.054;2023-09-12T01:32:49;97050.50;;;17.23;95.85
79331;BME280;68797;49.782;19.054;2023-09-12T01:35:16;97037.47;;;17.17;95.89
79331;BME280;68797;49.782;19.054;2023-09-12T01:37:43;97047.53;;;17.13;96.10
79331;BME280;68797;49.782;19.054;2023-09-12T01:40:13;97041.78;;;17.05;96.62
79331;BME280;68797;49.782;19.054;2023-09-12T01:42:45;97053.75;;;17.14;96.39
79331;BME280;68797;49.782;19.054;2023-09-12T01:45:16;97045.72;;;17.14;96.08
79331;BME280;68797;49.782;19.054;2023-09-12T01:47:45;97046.47;;;17.16;96.04
79331;BME280;68797;49.782;19.054;2023-09-12T01:50:15;97041.41;;;17.11;96.34
79331;BME280;68797;49.782;19.054;2023-09-12T01:52:43;97039.88;;;17.07;96.19
79331;BME280;68797;49.782;19.054;2023-09-12T01:55:12;97038.63;;;16.99;96.91
79331;BME280;68797;49.782;19.054;2023-09-12T01:57:42;97035.75;;;17.02;96.67
79331;BME280;68797;49.782;19.054;2023-09-12T02:00:09;97048.69;;;17.09;96.52
79331;BME280;68797;49.782;19.054;2023-09-12T02:02:37;97044.28;;;17.08;96.30
79331;BME280;68797;49.782;19.054;2023-09-12T02:05:22;97046.00;;;17.09;96.30
79331;BME280;68797;49.782;19.054;2023-09-12T02:07:50;97029.81;;;17.11;95.41
79331;BME280;68797;49.782;19.054;2023-09-12T02:10:16;97038.53;;;17.00;95.55
79331;BME280;68797;49.782;19.054;2023-09-12T02:12:44;97048.09;;;17.04;95.65
79331;BME280;68797;49.782;19.054;2023-09-12T02:15:10;97041.34;;;16.83;96.11
79331;BME280;68797;49.782;19.054;2023-09-12T02:17:38;97043.56;;;16.91;95.72
79331;BME280;68797;49.782;19.054;2023-09-12T02:20:07;97049.69;;;16.93;95.75
79331;BME280;68797;49.782;19.054;2023-09-12T02:22:35;97047.50;;;16.85;96.06
79331;BME280;68797;49.782;19.054;2023-09-12T02:25:06;97040.50;;;16.82;96.57
79331;BME280;68797;49.782;19.054;2023-09-12T02:27:33;97051.91;;;16.86;96.16
79331;BME280;68797;49.782;19.054;2023-09-12T02:30:00;97037.03;;;16.80;96.00
79331;BME280;68797;49.782;19.054;2023-09-12T02:32:27;97060.50;;;16.91;96.01
79331;BME280;68797;49.782;19.054;2023-09-12T02:34:53;97052.06;;;16.83;96.31
79331;BME280;68797;49.782;19.054;2023-09-12T02:37:23;97054.59;;;16.86;96.39
79331;BME280;68797;49.782;19.054;2023-09-12T02:39:50;97035.78;;;16.72;96.20
79331;BME280;68797;49.782;19.054;2023-09-12T02:42:17;97046.03;;;16.79;95.75
79331;BME280;68797;49.782;19.054;2023-09-12T02:44:44;97051.41;;;16.79;96.09
79331;BME280;68797;49.782;19.054;2023-09-12T02:47:11;97041.84;;;16.75;95.95
79331;BME280;68797;49.782;19.054;2023-09-12T02:49:38;97042.28;;;16.68;96.06
79331;BME280;68797;49.782;19.054;2023-09-12T02:52:05;97038.53;;;16.70;96.07
79331;BME280;68797;49.782;19.054;2023-09-12T02:54:32;97039.75;;;16.65;96.10
79331;BME280;68797;49.782;19.054;2023-09-12T02:56:59;97048.66;;;16.65;96.18
79331;BME280;68797;49.782;19.054;2023-09-12T02:59:26;97033.22;;;16.54;96.89
79331;BME280;68797;49.782;19.054;2023-09-12T03:01:53;97042.78;;;16.59;96.89
79331;BME280;68797;49.782;19.054;2023-09-12T03:04:20;97049.06;;;16.73;96.42
79331;BME280;68797;49.782;19.054;2023-09-12T03:06:47;97037.59;;;16.71;96.45
79331;BME280;68797;49.782;19.054;2023-09-12T03:09:14;97036.38;;;16.77;96.29
79331;BME280;68797;49.782;19.054;2023-09-12T03:11:43;97039.81;;;16.79;95.79
79331;BME280;68797;49.782;19.054;2023-09-12T03:14:10;97038.19;;;16.76;96.03
79331;BME280;68797;49.782;19.054;2023-09-12T03:16:37;97040.31;;;16.86;95.66
79331;BME280;68797;49.782;19.054;2023-09-12T03:19:04;97044.97;;;16.82;95.81
79331;BME280;68797;49.782;19.054;2023-09-12T03:21:30;97038.34;;;16.73;96.01
79331;BME280;68797;49.782;19.054;2023-09-12T03:24:00;97044.50;;;16.75;96.35
79331;BME280;68797;49.782;19.054;2023-09-12T03:26:27;97040.59;;;16.81;96.02
79331;BME280;68797;49.782;19.054;2023-09-12T03:28:54;97051.41;;;16.79;96.73
79331;BME280;68797;49.782;19.054;2023-09-12T03:31:23;97044.81;;;16.85;95.94
79331;BME280;68797;49.782;19.054;2023-09-12T03:33:51;97049.47;;;16.81;96.17
79331;BME280;68797;49.782;19.054;2023-09-12T03:36:18;97045.09;;;16.80;96.18
79331;BME280;68797;49.782;19.054;2023-09-12T03:38:45;97054.09;;;16.94;96.13
79331;BME280;68797;49.782;19.054;2023-09-12T03:41:13;97040.50;;;16.82;96.31
79331;BME280;68797;49.782;19.054;2023-09-12T03:43:42;97044.03;;;16.83;96.48
79331;BME280;68797;49.782;19.054;2023-09-12T03:46:08;97059.09;;;16.86;96.69
79331;BME280;68797;49.782;19.054;2023-09-12T03:48:35;97039.16;;;16.75;96.74
79331;BME280;68797;49.782;19.054;2023-09-12T03:51:03;97040.91;;;16.91;96.04
79331;BME280;68797;49.782;19.054;2023-09-12T03:53:31;97027.94;;;16.83;96.13
79331;BME280;68797;49.782;19.054;2023-09-12T03:55:58;97032.44;;;16.82;96.50
79331;BME280;68797;49.782;19.054;2023-09-12T03:58:26;97045.94;;;16.81;95.84
79331;BME280;68797;49.782;19.054;2023-09-12T04:00:52;97044.97;;;16.82;96.37
79331;BME280;68797;49.782;19.054;2023-09-12T04:03:19;97039.53;;;16.83;96.09
79331;BME280;68797;49.782;19.054;2023-09-12T04:05:47;97042.63;;;16.92;95.98
79331;BME280;68797;49.782;19.054;2023-09-12T04:08:13;97047.63;;;16.98;95.61
79331;BME280;68797;49.782;19.054;2023-09-12T04:10:39;97040.53;;;16.97;94.77
79331;BME280;68797;49.782;19.054;2023-09-12T04:13:06;97042.34;;;16.96;94.72
79331;BME280;68797;49.782;19.054;2023-09-12T04:15:32;97045.50;;;16.89;95.34
79331;BME280;68797;49.782;19.054;2023-09-12T04:18:00;97059.75;;;16.89;95.70
79331;BME280;68797;49.782;19.054;2023-09-12T04:20:26;97043.66;;;16.89;95.13
79331;BME280;68797;49.782;19.054;2023-09-12T04:22:54;97055.81;;;16.95;95.24
79331;BME280;68797;49.782;19.054;2023-09-12T04:25:23;97048.06;;;16.90;94.68
79331;BME280;68797;49.782;19.054;2023-09-12T04:32:07;97047.50;;;16.85;94.70
79331;BME280;68797;49.782;19.054;2023-09-12T04:34:35;97045.75;;;16.84;94.62
79331;BME280;68797;49.782;19.054;2023-09-12T04:37:02;97057.53;;;16.96;94.35
79331;BME280;68797;49.782;19.054;2023-09-12T04:39:29;97046.16;;;16.92;93.87
79331;BME280;68797;49.782;19.054;2023-09-12T04:41:59;97045.81;;;16.98;94.04
79331;BME280;68797;49.782;19.054;2023-09-12T04:44:26;97045.69;;;17.00;93.73
79331;BME280;68797;49.782;19.054;2023-09-12T04:46:52;97063.13;;;17.07;93.57
79331;BME280;68797;49.782;19.054;2023-09-12T04:49:19;97049.81;;;17.05;92.24
79331;BME280;68797;49.782;19.054;2023-09-12T04:51:47;97050.19;;;16.99;92.75
79331;BME280;68797;49.782;19.054;2023-09-12T04:54:14;97058.34;;;17.12;92.31
79331;BME280;68797;49.782;19.054;2023-09-12T04:56:42;97043.22;;;16.97;91.98
79331;BME280;68797;49.782;19.054;2023-09-12T04:59:09;97047.97;;;16.92;92.52
79331;BME280;68797;49.782;19.054;2023-09-12T05:01:35;97056.88;;;16.92;92.53
79331;BME280;68797;49.782;19.054;2023-09-12T05:04:03;97072.50;;;17.00;92.61
79331;BME280;68797;49.782;19.054;2023-09-12T05:06:34;97071.53;;;17.01;93.10
79331;BME280;68797;49.782;19.054;2023-09-12T05:09:07;97052.28;;;16.94;92.84
79331;BME280;68797;49.782;19.054;2023-09-12T05:11:36;97064.88;;;17.08;93.19
79331;BME280;68797;49.782;19.054;2023-09-12T05:14:05;97074.72;;;17.07;92.86
79331;BME280;68797;49.782;19.054;2023-09-12T05:16:31;97066.00;;;17.18;92.59
79331;BME280;68797;49.782;19.054;2023-09-12T05:18:59;97079.03;;;17.24;91.49
79331;BME280;68797;49.782;19.054;2023-09-12T05:21:26;97069.38;;;17.22;91.31
79331;BME280;68797;49.782;19.054;2023-09-12T05:23:54;97071.00;;;17.24;92.48
79331;BME280;68797;49.782;19.054;2023-09-12T05:26:21;97060.47;;;17.35;91.44
79331;BME280;68797;49.782;19.054;2023-09-12T05:28:48;97068.22;;;17.40;91.77
79331;BME280;68797;49.782;19.054;2023-09-12T05:31:15;97072.75;;;17.54;91.21
79331;BME280;68797;49.782;19.054;2023-09-12T05:33:44;97075.78;;;17.62;91.78
79331;BME280;68797;49.782;19.054;2023-09-12T05:36:11;97072.19;;;17.63;91.92
79331;BME280;68797;49.782;19.054;2023-09-12T05:38:38;97061.34;;;17.64;90.83
79331;BME280;68797;49.782;19.054;2023-09-12T05:41:04;97073.31;;;17.73;92.07
79331;BME280;68797;49.782;19.054;2023-09-12T05:43:31;97070.75;;;17.71;92.68
79331;BME280;68797;49.782;19.054;2023-09-12T05:45:57;97078.31;;;17.79;92.60
79331;BME280;68797;49.782;19.054;2023-09-12T05:48:24;97065.66;;;17.81;91.09
79331;BME280;68797;49.782;19.054;2023-09-12T05:50:51;97067.38;;;17.82;92.33
79331;BME280;68797;49.782;19.054;2023-09-12T05:53:17;97074.63;;;17.94;92.16
79331;BME280;68797;49.782;19.054;2023-09-12T05:55:43;97067.19;;;17.85;90.92
79331;BME280;68797;49.782;19.054;2023-09-12T05:58:11;97075.19;;;18.14;91.75
79331;BME280;68797;49.782;19.054;2023-09-12T06:00:37;97072.00;;;18.21;90.70
79331;BME280;68797;49.782;19.054;2023-09-12T06:03:03;97073.28;;;18.43;90.70
79331;BME280;68797;49.782;19.054;2023-09-12T06:05:29;97077.09;;;18.53;88.46
79331;BME280;68797;49.782;19.054;2023-09-12T06:07:56;97083.63;;;18.76;88.14
79331;BME280;68797;49.782;19.054;2023-09-12T06:10:22;97078.19;;;19.03;86.71
79331;BME280;68797;49.782;19.054;2023-09-12T06:12:48;97084.13;;;19.21;85.58
79331;BME280;68797;49.782;19.054;2023-09-12T06:15:15;97076.09;;;19.59;82.74
79331;BME280;68797;49.782;19.054;2023-09-12T06:17:41;97074.97;;;19.99;81.15
79331;BME280;68797;49.782;19.054;2023-09-12T06:20:08;97074.22;;;20.34;78.49
79331;BME280;68797;49.782;19.054;2023-09-12T06:22:35;97073.97;;;20.74;77.64
79331;BME280;68797;49.782;19.054;2023-09-12T06:25:01;97072.13;;;21.09;75.57
79331;BME280;68797;49.782;19.054;2023-09-12T06:27:30;97070.72;;;21.28;74.03
79331;BME280;68797;49.782;19.054;2023-09-12T06:29:57;97078.75;;;21.52;72.94
79331;BME280;68797;49.782;19.054;2023-09-12T06:32:23;97069.41;;;21.56;72.06
79331;BME280;68797;49.782;19.054;2023-09-12T06:34:49;97078.13;;;21.82;72.60
79331;BME280;68797;49.782;19.054;2023-09-12T06:37:16;97072.25;;;21.88;71.70
79331;BME280;68797;49.782;19.054;2023-09-12T06:39:42;97075.56;;;21.91;70.94
79331;BME280;68797;49.782;19.054;2023-09-12T06:42:09;97083.41;;;22.05;70.56
79331;BME280;68797;49.782;19.054;2023-09-12T06:44:36;97074.72;;;22.13;71.18
79331;BME280;68797;49.782;19.054;2023-09-12T06:47:05;97072.88;;;22.14;71.19
79331;BME280;68797;49.782;19.054;2023-09-12T06:49:32;97076.78;;;22.32;70.73
79331;BME280;68797;49.782;19.054;2023-09-12T06:52:02;97080.69;;;22.50;71.28
79331;BME280;68797;49.782;19.054;2023-09-12T06:54:28;97070.97;;;22.48;69.49
79331;BME280;68797;49.782;19.054;2023-09-12T06:56:55;97079.13;;;22.69;68.79
79331;BME280;68797;49.782;19.054;2023-09-12T06:59:26;97084.28;;;22.72;68.33
79331;BME280;68797;49.782;19.054;2023-09-12T07:01:53;97085.63;;;22.77;68.60
79331;BME280;68797;49.782;19.054;2023-09-12T07:04:19;97080.84;;;22.70;68.44
79331;BME280;68797;49.782;19.054;2023-09-12T07:06:46;97082.88;;;23.00;69.57
79331;BME280;68797;49.782;19.054;2023-09-12T07:09:12;97083.38;;;22.94;67.61
79331;BME280;68797;49.782;19.054;2023-09-12T07:11:43;97087.91;;;22.93;69.60
79331;BME280;68797;49.782;19.054;2023-09-12T07:14:10;97083.16;;;23.17;68.96
79331;BME280;68797;49.782;19.054;2023-09-12T07:16:37;97088.63;;;23.27;67.60
79331;BME280;68797;49.782;19.054;2023-09-12T07:19:03;97083.94;;;23.50;68.42
79331;BME280;68797;49.782;19.054;2023-09-12T07:21:30;97086.72;;;23.60;67.92
79331;BME280;68797;49.782;19.054;2023-09-12T07:23:57;97078.13;;;23.55;65.67
79331;BME280;68797;49.782;19.054;2023-09-12T07:26:23;97078.50;;;23.61;67.72
79331;BME280;68797;49.782;19.054;2023-09-12T07:28:49;97071.38;;;23.70;64.78
79331;BME280;68797;49.782;19.054;2023-09-12T07:31:26;97071.56;;;23.78;65.80
79331;BME280;68797;49.782;19.054;2023-09-12T07:33:52;97075.13;;;24.09;67.15
79331;BME280;68797;49.782;19.054;2023-09-12T07:36:18;97076.81;;;24.31;64.81
79331;BME280;68797;49.782;19.054;2023-09-12T07:38:45;97076.28;;;24.16;64.67
79331;BME280;68797;49.782;19.054;2023-09-12T07:41:13;97076.25;;;24.37;66.24
79331;BME280;68797;49.782;19.054;2023-09-12T07:43:39;97071.31;;;24.52;65.05
79331;BME280;68797;49.782;19.054;2023-09-12T07:46:06;97073.44;;;24.68;64.62
79331;BME280;68797;49.782;19.054;2023-09-12T07:48:32;97083.19;;;24.80;64.07
79331;BME280;68797;49.782;19.054;2023-09-12T07:50:59;97077.19;;;24.86;64.55
79331;BME280;68797;49.782;19.054;2023-09-12T07:53:25;97077.34;;;24.84;63.32
79331;BME280;68797;49.782;19.054;2023-09-12T07:55:51;97067.91;;;24.79;64.67
79331;BME280;68797;49.782;19.054;2023-09-12T07:58:18;97070.63;;;24.98;65.04
79331;BME280;68797;49.782;19.054;2023-09-12T08:00:46;97065.38;;;25.06;66.26
79331;BME280;68797;49.782;19.054;2023-09-12T08:03:12;97070.38;;;25.11;64.10
79331;BME280;68797;49.782;19.054;2023-09-12T08:05:39;97072.78;;;25.24;65.16
79331;BME280;68797;49.782;19.054;2023-09-12T08:08:05;97082.47;;;25.36;64.90
79331;BME280;68797;49.782;19.054;2023-09-12T08:10:32;97073.78;;;25.32;65.00
79331;BME280;68797;49.782;19.054;2023-09-12T08:12:59;97073.78;;;25.42;63.16
79331;BME280;68797;49.782;19.054;2023-09-12T08:15:28;97087.31;;;25.61;64.65
79331;BME280;68797;49.782;19.054;2023-09-12T08:17:54;97074.84;;;25.59;62.13
79331;BME280;68797;49.782;19.054;2023-09-12T08:20:21;97085.00;;;25.66;63.38
79331;BME280;68797;49.782;19.054;2023-09-12T08:22:47;97077.31;;;25.52;60.14
79331;BME280;68797;49.782;19.054;2023-09-12T08:25:14;97088.44;;;25.68;64.32
79331;BME280;68797;49.782;19.054;2023-09-12T08:27:41;97074.69;;;25.80;66.17
79331;BME280;68797;49.782;19.054;2023-09-12T08:30:11;97083.09;;;25.96;68.71
79331;BME280;68797;49.782;19.054;2023-09-12T08:32:39;97077.66;;;25.96;58.98
79331;BME280;68797;49.782;19.054;2023-09-12T08:35:06;97079.63;;;26.03;62.91
79331;BME280;68797;49.782;19.054;2023-09-12T08:37:59;97073.16;;;26.04;64.05
79331;BME280;68797;49.782;19.054;2023-09-12T08:40:28;97081.41;;;26.22;65.74
79331;BME280;68797;49.782;19.054;2023-09-12T08:42:57;97074.94;;;26.23;63.73
79331;BME280;68797;49.782;19.054;2023-09-12T08:45:32;97067.81;;;26.22;62.36
79331;BME280;68797;49.782;19.054;2023-09-12T08:48:03;97080.66;;;26.30;62.36
79331;BME280;68797;49.782;19.054;2023-09-12T08:50:35;97074.19;;;26.41;62.42
79331;BME280;68797;49.782;19.054;2023-09-12T08:53:02;97066.09;;;26.49;65.23
79331;BME280;68797;49.782;19.054;2023-09-12T08:55:32;97084.94;;;26.60;64.29
79331;BME280;68797;49.782;19.054;2023-09-12T08:58:03;97081.88;;;26.45;61.20
79331;BME280;68797;49.782;19.054;2023-09-12T09:00:30;97073.94;;;26.61;61.97
79331;BME280;68797;49.782;19.054;2023-09-12T09:02:56;97076.78;;;26.60;59.88
79331;BME280;68797;49.782;19.054;2023-09-12T09:05:24;97064.69;;;26.72;64.24
79331;BME280;68797;49.782;19.054;2023-09-12T09:07:51;97066.84;;;26.69;59.67
79331;BME280;68797;49.782;19.054;2023-09-12T09:10:18;97072.84;;;26.72;58.19
79331;BME280;68797;49.782;19.054;2023-09-12T09:12:46;97079.94;;;26.83;60.16
79331;BME280;68797;49.782;19.054;2023-09-12T09:15:27;97066.84;;;26.69;56.88
79331;BME280;68797;49.782;19.054;2023-09-12T09:17:57;97071.63;;;26.84;58.71
79331;BME280;68797;49.782;19.054;2023-09-12T09:20:34;97065.75;;;26.79;58.62
79331;BME280;68797;49.782;19.054;2023-09-12T09:23:02;97068.41;;;26.89;63.43
79331;BME280;68797;49.782;19.054;2023-09-12T09:25:43;97069.44;;;26.88;57.10
79331;BME280;68797;49.782;19.054;2023-09-12T09:28:19;97074.72;;;26.89;59.09
79331;BME280;68797;49.782;19.054;2023-09-12T09:30:49;97067.66;;;26.97;60.98
79331;BME280;68797;49.782;19.054;2023-09-12T09:33:20;97058.72;;;27.04;55.94
79331;BME280;68797;49.782;19.054;2023-09-12T09:35:48;97071.88;;;27.09;58.36
79331;BME280;68797;49.782;19.054;2023-09-12T09:38:15;97071.75;;;27.01;55.78
79331;BME280;68797;49.782;19.054;2023-09-12T09:40:45;97059.88;;;27.02;54.46
79331;BME280;68797;49.782;19.054;2023-09-12T09:43:11;97072.56;;;27.11;58.59
79331;BME280;68797;49.782;19.054;2023-09-12T09:45:45;97077.66;;;27.06;54.38
79331;BME280;68797;49.782;19.054;2023-09-12T09:48:23;97072.25;;;26.96;56.84
79331;BME280;68797;49.782;19.054;2023-09-12T09:51:02;97071.91;;;26.81;53.33
79331;BME280;68797;49.782;19.054;2023-09-12T09:53:30;97061.50;;;26.95;57.32
79331;BME280;68797;49.782;19.054;2023-09-12T09:56:16;97069.53;;;27.14;59.41
79331;BME280;68797;49.782;19.054;2023-09-12T09:58:55;97062.53;;;27.11;56.13
79331;BME280;68797;49.782;19.054;2023-09-12T10:01:29;97051.75;;;26.92;55.95
79331;BME280;68797;49.782;19.054;2023-09-12T10:03:59;97057.00;;;27.03;53.19
79331;BME280;68797;49.782;19.054;2023-09-12T10:06:27;97056.06;;;27.12;53.33
79331;BME280;68797;49.782;19.054;2023-09-12T10:08:55;97056.22;;;27.11;54.01
79331;BME280;68797;49.782;19.054;2023-09-12T10:11:28;97059.50;;;27.14;57.91
79331;BME280;68797;49.782;19.054;2023-09-12T10:14:03;97061.91;;;27.17;54.78
79331;BME280;68797;49.782;19.054;2023-09-12T10:16:32;97054.72;;;26.99;59.35
79331;BME280;68797;49.782;19.054;2023-09-12T10:21:30;97048.66;;;27.05;60.64
79331;BME280;68797;49.782;19.054;2023-09-12T10:24:00;97041.25;;;26.79;56.76
79331;BME280;68797;49.782;19.054;2023-09-12T10:26:31;97051.69;;;26.66;60.45
79331;BME280;68797;49.782;19.054;2023-09-12T10:28:59;97057.38;;;26.73;57.74
79331;BME280;68797;49.782;19.054;2023-09-12T10:31:26;97046.41;;;26.64;57.52
79331;BME280;68797;49.782;19.054;2023-09-12T10:33:56;97054.94;;;26.70;64.27
79331;BME280;68797;49.782;19.054;2023-09-12T10:36:26;97050.66;;;26.67;54.52
79331;BME280;68797;49.782;19.054;2023-09-12T10:38:53;97041.56;;;26.58;56.38
79331;BME280;68797;49.782;19.054;2023-09-12T10:41:24;97041.72;;;26.57;56.32
79331;BME280;68797;49.782;19.054;2023-09-12T10:43:52;97036.25;;;26.39;55.81
79331;BME280;68797;49.782;19.054;2023-09-12T10:46:21;97037.34;;;26.19;59.44
79331;BME280;68797;49.782;19.054;2023-09-12T10:48:51;97036.72;;;25.97;57.26
79331;BME280;68797;49.782;19.054;2023-09-12T10:51:19;97034.31;;;25.94;61.64
79331;BME280;68797;49.782;19.054;2023-09-12T10:53:46;97044.16;;;26.05;61.60
79331;BME280;68797;49.782;19.054;2023-09-12T10:56:18;97047.78;;;26.14;62.99
79331;BME280;68797;49.782;19.054;2023-09-12T11:01:33;97034.63;;;26.19;59.98
79331;BME280;68797;49.782;19.054;2023-09-12T11:06:48;97030.38;;;26.06;58.17
79331;BME280;68797;49.782;19.054;2023-09-12T11:09:15;97043.22;;;26.14;60.94
79331;BME280;68797;49.782;19.054;2023-09-12T11:11:49;97042.56;;;26.02;59.72
79331;BME280;68797;49.782;19.054;2023-09-12T11:14:20;97040.00;;;26.01;58.64
79331;BME280;68797;49.782;19.054;2023-09-12T11:19:47;97043.31;;;25.95;60.52
79331;BME280;68797;49.782;19.054;2023-09-12T11:22:42;97041.41;;;26.05;59.31
79331;BME280;68797;49.782;19.054;2023-09-12T11:25:22;97036.63;;;26.17;57.10
79331;BME280;68797;49.782;19.054;2023-09-12T11:31:59;97034.50;;;26.11;55.25
79331;BME280;68797;49.782;19.054;2023-09-12T11:34:55;97017.88;;;26.14;52.09
79331;BME280;68797;49.782;19.054;2023-09-12T11:38:28;97029.13;;;26.28;49.21
79331;BME280;68797;49.782;19.054;2023-09-12T11:42:18;97016.13;;;26.22;53.39
79331;BME280;68797;49.782;19.054;2023-09-12T11:45:39;97032.69;;;26.29;54.60
79331;BME280;68797;49.782;19.054;2023-09-12T11:49:21;97010.53;;;26.24;50.85
79331;BME280;68797;49.782;19.054;2023-09-12T11:59:57;97011.75;;;26.12;51.86
79331;BME280;68797;49.782;19.054;2023-09-12T12:03:23;97015.84;;;26.16;50.61
79331;BME280;68797;49.782;19.054;2023-09-12T12:06:11;97011.25;;;25.98;53.01
79331;BME280;68797;49.782;19.054;2023-09-12T12:09:05;96999.16;;;25.83;48.38
79331;BME280;68797;49.782;19.054;2023-09-12T12:11:48;97007.44;;;25.82;51.02
79331;BME280;68797;49.782;19.054;2023-09-12T12:14:38;97003.44;;;25.86;51.33
79331;BME280;68797;49.782;19.054;2023-09-12T12:17:15;97011.47;;;25.77;51.91
79331;BME280;68797;49.782;19.054;2023-09-12T12:19:59;97017.91;;;25.67;55.48
79331;BME280;68797;49.782;19.054;2023-09-12T12:22:44;97008.78;;;25.58;54.49
79331;BME280;68797;49.782;19.054;2023-09-12T12:25:19;96999.63;;;25.59;56.12
79331;BME280;68797;49.782;19.054;2023-09-12T12:27:52;97013.38;;;25.58;54.49
79331;BME280;68797;49.782;19.054;2023-09-12T12:30:37;97008.38;;;25.53;56.03
79331;BME280;68797;49.782;19.054;2023-09-12T12:33:12;97000.72;;;25.39;57.23
79331;BME280;68797;49.782;19.054;2023-09-12T12:35:40;96999.97;;;25.37;56.87
79331;BME280;68797;49.782;19.054;2023-09-12T12:38:22;97004.41;;;25.38;51.79
79331;BME280;68797;49.782;19.054;2023-09-12T12:40:54;97002.50;;;25.58;56.56
79331;BME280;68797;49.782;19.054;2023-09-12T12:43:24;97011.34;;;25.69;53.20
79331;BME280;68797;49.782;19.054;2023-09-12T12:46:01;97005.50;;;25.74;54.15
79331;BME280;68797;49.782;19.054;2023-09-12T12:49:06;96995.31;;;25.66;53.81
79331;BME280;68797;49.782;19.054;2023-09-12T12:51:49;96995.91;;;25.70;48.45
79331;BME280;68797;49.782;19.054;2023-09-12T12:54:22;96992.59;;;25.76;49.84
79331;BME280;68797;49.782;19.054;2023-09-12T12:56:54;96994.47;;;25.75;52.97
79331;BME280;68797;49.782;19.054;2023-09-12T12:59:26;97000.28;;;25.81;54.11
79331;BME280;68797;49.782;19.054;2023-09-12T13:01:53;96998.03;;;25.76;53.01
79331;BME280;68797;49.782;19.054;2023-09-12T13:04:24;96989.88;;;25.66;52.50
79331;BME280;68797;49.782;19.054;2023-09-12T13:07:23;97008.59;;;25.79;54.06
79331;BME280;68797;49.782;19.054;2023-09-12T13:09:52;96998.03;;;25.76;50.51
79331;BME280;68797;49.782;19.054;2023-09-12T13:12:56;96992.63;;;25.57;54.72
79331;BME280;68797;49.782;19.054;2023-09-12T13:15:30;97011.22;;;25.61;56.54
79331;BME280;68797;49.782;19.054;2023-09-12T13:18:06;97000.38;;;25.61;55.28
79331;BME280;68797;49.782;19.054;2023-09-12T13:20:36;97003.19;;;25.60;54.43
79331;BME280;68797;49.782;19.054;2023-09-12T13:23:12;96985.78;;;25.62;56.25
79331;BME280;68797;49.782;19.054;2023-09-12T13:25:44;96992.19;;;25.71;58.57
79331;BME280;68797;49.782;19.054;2023-09-12T13:28:10;96998.75;;;25.68;55.36
79331;BME280;68797;49.782;19.054;2023-09-12T13:30:43;96987.75;;;25.60;55.39
79331;BME280;68797;49.782;19.054;2023-09-12T13:33:14;97003.78;;;25.73;57.17
79331;BME280;68797;49.782;19.054;2023-09-12T16:09:29;97000.78;;;21.92;81.50
79331;BME280;68797;49.782;19.054;2023-09-12T16:13:12;96999.56;;;21.85;81.13